Ciudad Del Este, Paraguay

5:59 PM PYT on May 30, 2015 (GMT -0400)
Estacao Meteorologia pessoal localizada em Foz do Iguacu - PR | | Change Station
CLOSE
Current Station
Personal Weather Station
Location: Foz Do Iguaçu, PARANá
Elevation: 594 ft
Nearby Weather Stations

Elev 594 ft 25.54 °S, 54.58 °W | Updated 9 minutes ago

Mostly Cloudy
Mostly Cloudy
58.1 °F
Feels Like 58.1 °F
N
0.0
Wind Variable Wind from NE

Today
High -- | Low -- °F
--% Chance of Precip.
Yesterday
High -- | Low -- °F
Precip. -- in
6:15 AM 4:55 PM
Waxing Gibbous, 92% visible
Pressure 29.98 in
Visibility 6.2 miles
Clouds Mostly Cloudy 1300 ft
Dew Point 58 °F
Humidity 99%
Rainfall 0.18 in
Snow Depth Not available.
UV 0 out of 12
Pollen Not available.
Air Quality Not available.
Flu Activity Not available.
SPECI SBFI 302128Z 08002KT 9999 BKN013 14/14 Q1015

More Conditions Fewer Conditions

Pressure 29.98 in
Visibility 6.2 miles
Clouds Mostly Cloudy 1300 ft
Dew Point 58 °F
Humidity 99%
Rainfall 0.18 in
Snow Depth Not available.
UV 0 out of 12
Pollen Not available.
Air Quality Not available.
Flu Activity Not available.
SPECI SBFI 302128Z 08002KT 9999 BKN013 14/14 Q1015

More Conditions Fewer Conditions

10-Day Weather Forecast

Almanac

Astronomy

May. 30, 2015 Rise Set
Actual Time
Civil Twilight
Nautical Twilight
Astronomical Twilight
Moon
Length of Visible Light
Length of Day
Tomorrow will be .
, % of the Moon is Illuminated

Today's Extremes

Country Highs Country Lows

Community

WunderPhotos

Upload Photos

1,825,608 photos uploaded!

WunderBlogs® & News

Nearby

Air Quality

  Air Quality AQ Index Pollutant
Not available.

Snow Depth

Station Depth Elevation

Earthquake Activity

City Distance Mag. Time & Date
Minimum magnitude displayed is 2.5.

Coastal Water Temperatures

Place Temperature

Stations

Nearby Weather Stations

Station Location Temp. Windchill Dew Point Humidity Wind Precip. Elev Updated Type